sensor_id;sensor_type;location;lat;lon;timestamp;temperature;humidity
3770;DHT22;1900;48.890;9.190;2022-12-07T00:00:49;8.90;65.90
3770;DHT22;1900;48.890;9.190;2022-12-07T00:03:15;8.90;66.00
3770;DHT22;1900;48.890;9.190;2022-12-07T00:05:40;8.90;66.00
3770;DHT22;1900;48.890;9.190;2022-12-07T00:08:06;8.90;66.10
3770;DHT22;1900;48.890;9.190;2022-12-07T00:10:33;8.90;66.10
3770;DHT22;1900;48.890;9.190;2022-12-07T00:12:59;8.90;66.00
3770;DHT22;1900;48.890;9.190;2022-12-07T00:15:25;8.90;66.00
3770;DHT22;1900;48.890;9.190;2022-12-07T00:17:51;8.90;65.90
3770;DHT22;1900;48.890;9.190;2022-12-07T00:20:16;8.90;65.80
3770;DHT22;1900;48.890;9.190;2022-12-07T00:22:42;8.90;65.80
3770;DHT22;1900;48.890;9.190;2022-12-07T00:25:08;8.90;65.70
3770;DHT22;1900;48.890;9.190;2022-12-07T00:27:34;8.90;65.70
3770;DHT22;1900;48.890;9.190;2022-12-07T00:29:59;8.80;65.50
3770;DHT22;1900;48.890;9.190;2022-12-07T00:32:25;8.80;65.60
3770;DHT22;1900;48.890;9.190;2022-12-07T00:34:51;8.80;65.60
3770;DHT22;1900;48.890;9.190;2022-12-07T00:37:17;8.80;65.80
3770;DHT22;1900;48.890;9.190;2022-12-07T00:39:42;8.80;66.00
3770;DHT22;1900;48.890;9.190;2022-12-07T00:42:08;8.80;65.90
3770;DHT22;1900;48.890;9.190;2022-12-07T00:44:34;8.80;65.80
3770;DHT22;1900;48.890;9.190;2022-12-07T00:46:59;8.80;65.90
3770;DHT22;1900;48.890;9.190;2022-12-07T00:49:25;8.80;65.80
3770;DHT22;1900;48.890;9.190;2022-12-07T00:51:51;8.80;65.80
3770;DHT22;1900;48.890;9.190;2022-12-07T00:54:19;8.80;65.90
3770;DHT22;1900;48.890;9.190;2022-12-07T00:56:44;8.80;65.90
3770;DHT22;1900;48.890;9.190;2022-12-07T00:59:12;8.70;65.80
3770;DHT22;1900;48.890;9.190;2022-12-07T01:01:39;8.70;65.60
3770;DHT22;1900;48.890;9.190;2022-12-07T01:04:05;8.70;65.60
3770;DHT22;1900;48.890;9.190;2022-12-07T01:06:31;8.70;65.50
3770;DHT22;1900;48.890;9.190;2022-12-07T01:08:57;8.70;65.60
3770;DHT22;1900;48.890;9.190;2022-12-07T01:11:25;8.60;65.60
3770;DHT22;1900;48.890;9.190;2022-12-07T01:13:53;8.60;65.60
3770;DHT22;1900;48.890;9.190;2022-12-07T01:16:20;8.70;65.80
3770;DHT22;1900;48.890;9.190;2022-12-07T01:18:48;8.70;66.00
3770;DHT22;1900;48.890;9.190;2022-12-07T01:21:25;8.70;65.90
3770;DHT22;1900;48.890;9.190;2022-12-07T01:23:51;8.60;65.80
3770;DHT22;1900;48.890;9.190;2022-12-07T01:26:20;8.60;65.90
3770;DHT22;1900;48.890;9.190;2022-12-07T01:28:47;8.70;66.10
3770;DHT22;1900;48.890;9.190;2022-12-07T01:31:15;8.70;66.20
3770;DHT22;1900;48.890;9.190;2022-12-07T01:33:42;8.70;66.20
3770;DHT22;1900;48.890;9.190;2022-12-07T01:36:23;8.70;66.20
3770;DHT22;1900;48.890;9.190;2022-12-07T01:38:51;8.70;66.20
3770;DHT22;1900;48.890;9.190;2022-12-07T01:41:19;8.80;66.20
3770;DHT22;1900;48.890;9.190;2022-12-07T01:46:55;8.80;66.20
3770;DHT22;1900;48.890;9.190;2022-12-07T01:52:29;8.80;66.10
3770;DHT22;1900;48.890;9.190;2022-12-07T01:55:00;8.80;66.20
3770;DHT22;1900;48.890;9.190;2022-12-07T01:57:27;8.80;66.20
3770;DHT22;1900;48.890;9.190;2022-12-07T01:59:56;8.80;66.20
3770;DHT22;1900;48.890;9.190;2022-12-07T02:02:29;8.80;66.30
3770;DHT22;1900;48.890;9.190;2022-12-07T02:04:59;8.80;66.40
3770;DHT22;1900;48.890;9.190;2022-12-07T02:07:26;8.90;66.30
3770;DHT22;1900;48.890;9.190;2022-12-07T02:09:52;8.90;66.20
3770;DHT22;1900;48.890;9.190;2022-12-07T02:12:18;8.90;66.10
3770;DHT22;1900;48.890;9.190;2022-12-07T02:14:45;8.90;66.20
3770;DHT22;1900;48.890;9.190;2022-12-07T02:17:28;8.90;66.20
3770;DHT22;1900;48.890;9.190;2022-12-07T02:28:09;8.90;66.50
3770;DHT22;1900;48.890;9.190;2022-12-07T02:30:43;8.90;66.40
3770;DHT22;1900;48.890;9.190;2022-12-07T02:33:24;9.00;66.50
3770;DHT22;1900;48.890;9.190;2022-12-07T02:41:40;9.00;66.50
3770;DHT22;1900;48.890;9.190;2022-12-07T02:44:11;9.00;66.50
3770;DHT22;1900;48.890;9.190;2022-12-07T02:46:43;9.00;66.50
3770;DHT22;1900;48.890;9.190;2022-12-07T02:49:10;9.00;66.60
3770;DHT22;1900;48.890;9.190;2022-12-07T02:51:41;9.00;66.50
3770;DHT22;1900;48.890;9.190;2022-12-07T02:54:18;9.10;66.60
3770;DHT22;1900;48.890;9.190;2022-12-07T03:05:06;9.10;66.40
3770;DHT22;1900;48.890;9.190;2022-12-07T03:07:57;9.00;66.30
3770;DHT22;1900;48.890;9.190;2022-12-07T03:13:12;9.10;66.50
3770;DHT22;1900;48.890;9.190;2022-12-07T03:18:37;9.10;66.50
3770;DHT22;1900;48.890;9.190;2022-12-07T03:21:15;9.10;66.50
3770;DHT22;1900;48.890;9.190;2022-12-07T03:23:45;9.10;66.50
3770;DHT22;1900;48.890;9.190;2022-12-07T03:26:13;9.10;66.50
3770;DHT22;1900;48.890;9.190;2022-12-07T03:28:46;9.10;66.50
3770;DHT22;1900;48.890;9.190;2022-12-07T03:31:20;9.10;66.40
3770;DHT22;1900;48.890;9.190;2022-12-07T03:33:56;9.10;66.40
3770;DHT22;1900;48.890;9.190;2022-12-07T03:36:30;9.10;66.40
3770;DHT22;1900;48.890;9.190;2022-12-07T03:39:25;9.10;66.40
3770;DHT22;1900;48.890;9.190;2022-12-07T03:41:54;9.10;66.40
3770;DHT22;1900;48.890;9.190;2022-12-07T03:44:22;9.00;66.30
3770;DHT22;1900;48.890;9.190;2022-12-07T03:49:46;9.10;66.40
3770;DHT22;1900;48.890;9.190;2022-12-07T03:52:36;9.10;66.30
3770;DHT22;1900;48.890;9.190;2022-12-07T03:55:18;9.10;66.30
3770;DHT22;1900;48.890;9.190;2022-12-07T03:57:47;9.10;66.30
3770;DHT22;1900;48.890;9.190;2022-12-07T04:00:15;9.10;67.00
3770;DHT22;1900;48.890;9.190;2022-12-07T04:02:42;9.00;66.20
3770;DHT22;1900;48.890;9.190;2022-12-07T04:05:08;9.00;66.20
3770;DHT22;1900;48.890;9.190;2022-12-07T04:07:34;9.00;66.20
3770;DHT22;1900;48.890;9.190;2022-12-07T04:10:00;9.00;66.10
3770;DHT22;1900;48.890;9.190;2022-12-07T04:12:26;9.00;65.90
3770;DHT22;1900;48.890;9.190;2022-12-07T04:14:51;9.00;65.80
3770;DHT22;1900;48.890;9.190;2022-12-07T04:17:19;9.00;65.70
3770;DHT22;1900;48.890;9.190;2022-12-07T04:19:45;8.90;65.60
3770;DHT22;1900;48.890;9.190;2022-12-07T04:22:11;8.90;65.60
3770;DHT22;1900;48.890;9.190;2022-12-07T04:24:36;8.90;65.60
3770;DHT22;1900;48.890;9.190;2022-12-07T04:27:02;8.80;65.50
3770;DHT22;1900;48.890;9.190;2022-12-07T04:29:28;8.80;65.50
3770;DHT22;1900;48.890;9.190;2022-12-07T04:31:54;8.80;65.50
3770;DHT22;1900;48.890;9.190;2022-12-07T04:34:20;8.80;65.50
3770;DHT22;1900;48.890;9.190;2022-12-07T04:36:46;8.80;65.50
3770;DHT22;1900;48.890;9.190;2022-12-07T04:39:25;8.80;65.50
3770;DHT22;1900;48.890;9.190;2022-12-07T04:41:51;8.70;65.50
3770;DHT22;1900;48.890;9.190;2022-12-07T04:44:17;8.70;65.50
3770;DHT22;1900;48.890;9.190;2022-12-07T04:46:44;8.70;65.50
3770;DHT22;1900;48.890;9.190;2022-12-07T04:49:11;8.70;65.60
3770;DHT22;1900;48.890;9.190;2022-12-07T04:51:37;8.70;65.60
3770;DHT22;1900;48.890;9.190;2022-12-07T04:54:03;8.70;65.60
3770;DHT22;1900;48.890;9.190;2022-12-07T04:56:29;8.70;65.70
3770;DHT22;1900;48.890;9.190;2022-12-07T04:58:55;8.70;65.80
3770;DHT22;1900;48.890;9.190;2022-12-07T05:01:21;8.70;65.80
3770;DHT22;1900;48.890;9.190;2022-12-07T05:03:48;8.70;65.80
3770;DHT22;1900;48.890;9.190;2022-12-07T05:06:14;8.70;65.80
3770;DHT22;1900;48.890;9.190;2022-12-07T05:08:40;8.70;65.80
3770;DHT22;1900;48.890;9.190;2022-12-07T05:11:07;8.70;65.80
3770;DHT22;1900;48.890;9.190;2022-12-07T05:13:33;8.70;65.80
3770;DHT22;1900;48.890;9.190;2022-12-07T05:15:59;8.70;65.80
3770;DHT22;1900;48.890;9.190;2022-12-07T05:18:25;8.70;65.80
3770;DHT22;1900;48.890;9.190;2022-12-07T05:20:51;8.70;65.80
3770;DHT22;1900;48.890;9.190;2022-12-07T05:23:17;8.70;65.80
3770;DHT22;1900;48.890;9.190;2022-12-07T05:25:43;8.70;65.70
3770;DHT22;1900;48.890;9.190;2022-12-07T05:28:09;8.70;65.70
3770;DHT22;1900;48.890;9.190;2022-12-07T05:30:35;8.70;65.70
3770;DHT22;1900;48.890;9.190;2022-12-07T05:33:00;8.70;65.70
3770;DHT22;1900;48.890;9.190;2022-12-07T05:35:26;8.70;65.60
3770;DHT22;1900;48.890;9.190;2022-12-07T05:37:52;8.70;65.60
3770;DHT22;1900;48.890;9.190;2022-12-07T05:40:18;8.70;65.60
3770;DHT22;1900;48.890;9.190;2022-12-07T05:42:44;8.70;65.60
3770;DHT22;1900;48.890;9.190;2022-12-07T05:45:10;8.70;65.60
3770;DHT22;1900;48.890;9.190;2022-12-07T05:47:36;8.70;65.70
3770;DHT22;1900;48.890;9.190;2022-12-07T05:50:02;8.70;65.50
3770;DHT22;1900;48.890;9.190;2022-12-07T05:52:28;8.60;65.30
3770;DHT22;1900;48.890;9.190;2022-12-07T05:54:54;8.60;65.30
3770;DHT22;1900;48.890;9.190;2022-12-07T05:57:20;8.60;65.30
3770;DHT22;1900;48.890;9.190;2022-12-07T05:59:45;8.60;65.50
3770;DHT22;1900;48.890;9.190;2022-12-07T06:02:13;8.60;65.60
3770;DHT22;1900;48.890;9.190;2022-12-07T06:04:44;8.60;65.50
3770;DHT22;1900;48.890;9.190;2022-12-07T06:07:12;8.60;65.30
3770;DHT22;1900;48.890;9.190;2022-12-07T06:09:39;8.60;65.30
3770;DHT22;1900;48.890;9.190;2022-12-07T06:12:05;8.50;65.30
3770;DHT22;1900;48.890;9.190;2022-12-07T06:14:53;8.50;65.40
3770;DHT22;1900;48.890;9.190;2022-12-07T06:17:19;8.60;65.50
3770;DHT22;1900;48.890;9.190;2022-12-07T06:19:45;8.50;65.40
3770;DHT22;1900;48.890;9.190;2022-12-07T06:22:11;8.50;65.50
3770;DHT22;1900;48.890;9.190;2022-12-07T06:24:37;8.50;65.50
3770;DHT22;1900;48.890;9.190;2022-12-07T06:27:04;8.60;65.60
3770;DHT22;1900;48.890;9.190;2022-12-07T06:29:30;8.60;65.60
3770;DHT22;1900;48.890;9.190;2022-12-07T06:31:56;8.60;65.60
3770;DHT22;1900;48.890;9.190;2022-12-07T06:34:23;8.60;65.60
3770;DHT22;1900;48.890;9.190;2022-12-07T06:36:50;8.60;65.60
3770;DHT22;1900;48.890;9.190;2022-12-07T06:39:22;8.60;65.70
3770;DHT22;1900;48.890;9.190;2022-12-07T06:41:48;8.60;65.70
3770;DHT22;1900;48.890;9.190;2022-12-07T06:44:14;8.60;65.60
3770;DHT22;1900;48.890;9.190;2022-12-07T06:46:40;8.60;65.60
3770;DHT22;1900;48.890;9.190;2022-12-07T06:49:06;8.60;65.60
3770;DHT22;1900;48.890;9.190;2022-12-07T06:51:33;8.60;65.60
3770;DHT22;1900;48.890;9.190;2022-12-07T06:54:00;8.60;65.60
3770;DHT22;1900;48.890;9.190;2022-12-07T06:56:26;8.60;65.60
3770;DHT22;1900;48.890;9.190;2022-12-07T06:58:52;8.60;65.60
3770;DHT22;1900;48.890;9.190;2022-12-07T07:01:18;8.70;65.60
3770;DHT22;1900;48.890;9.190;2022-12-07T07:03:45;8.60;65.50
3770;DHT22;1900;48.890;9.190;2022-12-07T07:06:12;8.60;65.50
3770;DHT22;1900;48.890;9.190;2022-12-07T07:08:38;8.70;65.60
3770;DHT22;1900;48.890;9.190;2022-12-07T07:11:04;8.60;65.50
3770;DHT22;1900;48.890;9.190;2022-12-07T07:13:30;8.70;65.60
3770;DHT22;1900;48.890;9.190;2022-12-07T07:15:57;8.70;65.60
3770;DHT22;1900;48.890;9.190;2022-12-07T07:18:23;8.70;65.60
3770;DHT22;1900;48.890;9.190;2022-12-07T07:20:50;8.70;65.70
3770;DHT22;1900;48.890;9.190;2022-12-07T07:23:17;8.70;65.70
3770;DHT22;1900;48.890;9.190;2022-12-07T07:25:43;8.70;65.60
3770;DHT22;1900;48.890;9.190;2022-12-07T07:28:09;8.70;65.60
3770;DHT22;1900;48.890;9.190;2022-12-07T07:30:35;8.70;65.60
3770;DHT22;1900;48.890;9.190;2022-12-07T07:33:01;8.70;65.60
3770;DHT22;1900;48.890;9.190;2022-12-07T07:35:29;8.80;65.70
3770;DHT22;1900;48.890;9.190;2022-12-07T07:37:55;8.80;65.70
3770;DHT22;1900;48.890;9.190;2022-12-07T07:40:21;8.80;65.60
3770;DHT22;1900;48.890;9.190;2022-12-07T07:42:51;8.70;65.50
3770;DHT22;1900;48.890;9.190;2022-12-07T07:45:18;8.80;65.60
3770;DHT22;1900;48.890;9.190;2022-12-07T07:47:44;8.80;65.50
3770;DHT22;1900;48.890;9.190;2022-12-07T07:50:10;8.80;66.20
3770;DHT22;1900;48.890;9.190;2022-12-07T07:52:36;8.80;65.40
3770;DHT22;1900;48.890;9.190;2022-12-07T07:55:02;8.80;65.50
3770;DHT22;1900;48.890;9.190;2022-12-07T07:57:28;8.80;65.50
3770;DHT22;1900;48.890;9.190;2022-12-07T07:59:54;8.80;65.50
3770;DHT22;1900;48.890;9.190;2022-12-07T08:02:20;8.80;65.50
3770;DHT22;1900;48.890;9.190;2022-12-07T08:04:46;8.80;65.60
3770;DHT22;1900;48.890;9.190;2022-12-07T08:07:13;8.80;65.60
3770;DHT22;1900;48.890;9.190;2022-12-07T08:09:38;8.80;65.60
3770;DHT22;1900;48.890;9.190;2022-12-07T08:12:04;8.80;65.70
3770;DHT22;1900;48.890;9.190;2022-12-07T08:14:30;8.90;65.70
3770;DHT22;1900;48.890;9.190;2022-12-07T08:16:56;8.90;65.70
3770;DHT22;1900;48.890;9.190;2022-12-07T08:19:22;8.90;65.70
3770;DHT22;1900;48.890;9.190;2022-12-07T08:21:48;8.90;65.60
3770;DHT22;1900;48.890;9.190;2022-12-07T08:24:14;8.90;65.60
3770;DHT22;1900;48.890;9.190;2022-12-07T08:26:40;9.00;65.70
3770;DHT22;1900;48.890;9.190;2022-12-07T08:29:06;9.00;65.80
3770;DHT22;1900;48.890;9.190;2022-12-07T08:31:32;9.00;66.50
3770;DHT22;1900;48.890;9.190;2022-12-07T08:33:58;9.00;65.90
3770;DHT22;1900;48.890;9.190;2022-12-07T08:36:24;9.00;65.90
3770;DHT22;1900;48.890;9.190;2022-12-07T08:38:50;9.00;65.80
3770;DHT22;1900;48.890;9.190;2022-12-07T08:41:16;9.00;65.80
3770;DHT22;1900;48.890;9.190;2022-12-07T08:43:42;9.10;65.80
3770;DHT22;1900;48.890;9.190;2022-12-07T08:46:24;9.10;65.80
3770;DHT22;1900;48.890;9.190;2022-12-07T08:49:03;9.10;65.70
3770;DHT22;1900;48.890;9.190;2022-12-07T08:51:30;9.10;65.80
3770;DHT22;1900;48.890;9.190;2022-12-07T08:53:56;9.10;65.80
3770;DHT22;1900;48.890;9.190;2022-12-07T08:56:24;9.10;65.90
3770;DHT22;1900;48.890;9.190;2022-12-07T08:58:50;9.20;66.00
3770;DHT22;1900;48.890;9.190;2022-12-07T09:01:16;9.20;66.00
3770;DHT22;1900;48.890;9.190;2022-12-07T09:03:41;9.20;66.00
3770;DHT22;1900;48.890;9.190;2022-12-07T09:06:07;9.20;66.70
3770;DHT22;1900;48.890;9.190;2022-12-07T09:08:36;9.30;66.20
3770;DHT22;1900;48.890;9.190;2022-12-07T09:11:03;9.30;66.20
3770;DHT22;1900;48.890;9.190;2022-12-07T09:13:28;9.30;66.20
3770;DHT22;1900;48.890;9.190;2022-12-07T09:15:54;9.30;66.20
3770;DHT22;1900;48.890;9.190;2022-12-07T09:18:20;9.40;66.30
3770;DHT22;1900;48.890;9.190;2022-12-07T09:20:45;9.40;66.30
3770;DHT22;1900;48.890;9.190;2022-12-07T09:23:11;9.40;66.30
3770;DHT22;1900;48.890;9.190;2022-12-07T09:25:37;9.50;66.40
3770;DHT22;1900;48.890;9.190;2022-12-07T09:28:02;9.50;66.50
3770;DHT22;1900;48.890;9.190;2022-12-07T09:30:28;9.50;66.40
3770;DHT22;1900;48.890;9.190;2022-12-07T09:32:55;9.60;66.50
3770;DHT22;1900;48.890;9.190;2022-12-07T09:35:21;9.60;66.50
3770;DHT22;1900;48.890;9.190;2022-12-07T09:37:47;9.60;67.10
3770;DHT22;1900;48.890;9.190;2022-12-07T09:40:14;9.70;66.60
3770;DHT22;1900;48.890;9.190;2022-12-07T09:42:44;9.70;66.60
3770;DHT22;1900;48.890;9.190;2022-12-07T09:45:17;9.80;66.70
3770;DHT22;1900;48.890;9.190;2022-12-07T09:47:44;9.80;66.60
3770;DHT22;1900;48.890;9.190;2022-12-07T09:50:17;9.80;66.50
3770;DHT22;1900;48.890;9.190;2022-12-07T09:52:45;9.80;66.40
3770;DHT22;1900;48.890;9.190;2022-12-07T09:55:22;9.80;66.30
3770;DHT22;1900;48.890;9.190;2022-12-07T09:57:49;9.80;66.20
3770;DHT22;1900;48.890;9.190;2022-12-07T10:00:19;9.80;66.00
3770;DHT22;1900;48.890;9.190;2022-12-07T10:02:59;9.80;66.00
3770;DHT22;1900;48.890;9.190;2022-12-07T10:05:32;9.80;66.10
3770;DHT22;1900;48.890;9.190;2022-12-07T10:08:00;9.80;66.10
3770;DHT22;1900;48.890;9.190;2022-12-07T10:10:30;9.80;66.20
3770;DHT22;1900;48.890;9.190;2022-12-07T10:12:59;9.90;66.30
3770;DHT22;1900;48.890;9.190;2022-12-07T10:18:30;9.90;66.00
3770;DHT22;1900;48.890;9.190;2022-12-07T10:21:14;9.90;66.10
3770;DHT22;1900;48.890;9.190;2022-12-07T10:26:36;9.90;66.20
3770;DHT22;1900;48.890;9.190;2022-12-07T10:29:18;9.90;65.90
3770;DHT22;1900;48.890;9.190;2022-12-07T10:31:54;9.90;66.00
3770;DHT22;1900;48.890;9.190;2022-12-07T10:36:47;9.90;65.90
3770;DHT22;1900;48.890;9.190;2022-12-07T10:39:23;9.90;65.90
3770;DHT22;1900;48.890;9.190;2022-12-07T10:41:56;9.90;65.80
3770;DHT22;1900;48.890;9.190;2022-12-07T10:44:33;9.90;65.70
3770;DHT22;1900;48.890;9.190;2022-12-07T10:52:27;9.80;65.40
3770;DHT22;1900;48.890;9.190;2022-12-07T11:00:51;9.70;65.20
3770;DHT22;1900;48.890;9.190;2022-12-07T11:03:39;9.70;66.20
3770;DHT22;1900;48.890;9.190;2022-12-07T11:11:55;9.70;65.50
3770;DHT22;1900;48.890;9.190;2022-12-07T11:22:58;9.70;65.80
3770;DHT22;1900;48.890;9.190;2022-12-07T11:25:39;9.70;65.90
3770;DHT22;1900;48.890;9.190;2022-12-07T11:34:05;9.70;65.80
3770;DHT22;1900;48.890;9.190;2022-12-07T11:36:47;9.70;65.70
3770;DHT22;1900;48.890;9.190;2022-12-07T11:41:41;9.70;65.90
3770;DHT22;1900;48.890;9.190;2022-12-07T11:44:22;9.70;66.00
3770;DHT22;1900;48.890;9.190;2022-12-07T11:47:13;9.70;66.10
3770;DHT22;1900;48.890;9.190;2022-12-07T11:49:54;9.80;66.30
3770;DHT22;1900;48.890;9.190;2022-12-07T11:52:55;9.80;66.30
3770;DHT22;1900;48.890;9.190;2022-12-07T11:55:45;9.80;66.20
3770;DHT22;1900;48.890;9.190;2022-12-07T12:00:51;9.80;66.30
3770;DHT22;1900;48.890;9.190;2022-12-07T12:03:30;9.90;66.30
3770;DHT22;1900;48.890;9.190;2022-12-07T12:05:58;9.90;66.30
3770;DHT22;1900;48.890;9.190;2022-12-07T12:08:33;9.90;66.30
3770;DHT22;1900;48.890;9.190;2022-12-07T12:11:28;9.90;66.10
3770;DHT22;1900;48.890;9.190;2022-12-07T12:20:01;9.90;66.00
3770;DHT22;1900;48.890;9.190;2022-12-07T12:22:52;9.90;66.00
3770;DHT22;1900;48.890;9.190;2022-12-07T12:25:26;10.00;65.00
3770;DHT22;1900;48.890;9.190;2022-12-07T12:27:58;9.90;66.00
3770;DHT22;1900;48.890;9.190;2022-12-07T12:30:38;10.00;65.20
3770;DHT22;1900;48.890;9.190;2022-12-07T12:33:28;10.00;65.10
3770;DHT22;1900;48.890;9.190;2022-12-07T12:46:58;10.00;65.10
3770;DHT22;1900;48.890;9.190;2022-12-07T12:54:27;10.00;64.80
3770;DHT22;1900;48.890;9.190;2022-12-07T12:57:09;10.00;64.80
3770;DHT22;1900;48.890;9.190;2022-12-07T13:02:39;10.00;64.80
3770;DHT22;1900;48.890;9.190;2022-12-07T13:15:42;10.00;65.50
3770;DHT22;1900;48.890;9.190;2022-12-07T13:20:51;10.00;64.70
3770;DHT22;1900;48.890;9.190;2022-12-07T13:28:48;9.90;65.60
3770;DHT22;1900;48.890;9.190;2022-12-07T13:33:44;9.90;65.90
3770;DHT22;1900;48.890;9.190;2022-12-07T13:36:23;9.90;66.00
3770;DHT22;1900;48.890;9.190;2022-12-07T13:39:00;10.00;65.00
3770;DHT22;1900;48.890;9.190;2022-12-07T13:41:35;10.00;64.90
3770;DHT22;1900;48.890;9.190;2022-12-07T13:46:52;10.00;65.10
3770;DHT22;1900;48.890;9.190;2022-12-07T13:49:25;10.00;65.00
3770;DHT22;1900;48.890;9.190;2022-12-07T13:51:52;10.00;64.90
3770;DHT22;1900;48.890;9.190;2022-12-07T13:54:18;10.00;64.90
3770;DHT22;1900;48.890;9.190;2022-12-07T13:56:49;10.00;65.00
3770;DHT22;1900;48.890;9.190;2022-12-07T13:59:21;10.00;65.00
3770;DHT22;1900;48.890;9.190;2022-12-07T14:01:48;10.00;64.80
3770;DHT22;1900;48.890;9.190;2022-12-07T14:06:52;10.00;64.60
3770;DHT22;1900;48.890;9.190;2022-12-07T14:09:26;10.00;64.70
3770;DHT22;1900;48.890;9.190;2022-12-07T14:11:56;10.00;64.70
3770;DHT22;1900;48.890;9.190;2022-12-07T14:14:32;10.00;64.60
3770;DHT22;1900;48.890;9.190;2022-12-07T14:17:20;10.00;64.50
3770;DHT22;1900;48.890;9.190;2022-12-07T14:19:54;10.00;64.50
3770;DHT22;1900;48.890;9.190;2022-12-07T14:22:35;10.00;64.40
3770;DHT22;1900;48.890;9.190;2022-12-07T14:25:22;9.90;65.30
3770;DHT22;1900;48.890;9.190;2022-12-07T14:27:53;9.90;65.40
3770;DHT22;1900;48.890;9.190;2022-12-07T14:30:22;9.90;65.40
3770;DHT22;1900;48.890;9.190;2022-12-07T14:32:53;9.90;65.30
3770;DHT22;1900;48.890;9.190;2022-12-07T14:35:19;9.90;65.30
3770;DHT22;1900;48.890;9.190;2022-12-07T14:37:47;9.80;65.00
3770;DHT22;1900;48.890;9.190;2022-12-07T14:40:22;9.80;65.00
3770;DHT22;1900;48.890;9.190;2022-12-07T14:42:52;9.80;65.10
3770;DHT22;1900;48.890;9.190;2022-12-07T14:45:21;9.80;65.10
3770;DHT22;1900;48.890;9.190;2022-12-07T14:47:47;9.70;65.00
3770;DHT22;1900;48.890;9.190;2022-12-07T14:50:15;9.70;65.10
3770;DHT22;1900;48.890;9.190;2022-12-07T14:52:44;9.70;65.20
3770;DHT22;1900;48.890;9.190;2022-12-07T14:55:23;9.70;65.10
3770;DHT22;1900;48.890;9.190;2022-12-07T14:57:48;9.70;65.20
3770;DHT22;1900;48.890;9.190;2022-12-07T15:00:16;9.70;65.20
3770;DHT22;1900;48.890;9.190;2022-12-07T15:02:46;9.60;65.10
3770;DHT22;1900;48.890;9.190;2022-12-07T15:05:12;9.60;65.10
3770;DHT22;1900;48.890;9.190;2022-12-07T15:07:38;9.60;65.10
3770;DHT22;1900;48.890;9.190;2022-12-07T15:10:08;9.60;65.00
3770;DHT22;1900;48.890;9.190;2022-12-07T15:12:38;9.60;64.90
3770;DHT22;1900;48.890;9.190;2022-12-07T15:15:04;9.60;64.80
3770;DHT22;1900;48.890;9.190;2022-12-07T15:17:30;9.60;64.80
3770;DHT22;1900;48.890;9.190;2022-12-07T15:19:55;9.50;64.80
3770;DHT22;1900;48.890;9.190;2022-12-07T15:22:21;9.50;64.80
3770;DHT22;1900;48.890;9.190;2022-12-07T15:24:47;9.50;64.80
3770;DHT22;1900;48.890;9.190;2022-12-07T15:27:12;9.50;64.90
3770;DHT22;1900;48.890;9.190;2022-12-07T15:29:38;9.50;65.10
3770;DHT22;1900;48.890;9.190;2022-12-07T15:32:04;9.50;65.10
3770;DHT22;1900;48.890;9.190;2022-12-07T15:34:30;9.50;65.10
3770;DHT22;1900;48.890;9.190;2022-12-07T15:36:57;9.50;65.00
3770;DHT22;1900;48.890;9.190;2022-12-07T15:39:23;9.50;65.00
3770;DHT22;1900;48.890;9.190;2022-12-07T15:41:49;9.40;65.00
3770;DHT22;1900;48.890;9.190;2022-12-07T15:44:15;9.50;65.10
3770;DHT22;1900;48.890;9.190;2022-12-07T15:47:00;9.40;65.10
3770;DHT22;1900;48.890;9.190;2022-12-07T15:49:26;9.40;65.10
3770;DHT22;1900;48.890;9.190;2022-12-07T15:51:53;9.40;65.10
3770;DHT22;1900;48.890;9.190;2022-12-07T15:54:26;9.40;65.10
3770;DHT22;1900;48.890;9.190;2022-12-07T15:56:54;9.40;65.10
3770;DHT22;1900;48.890;9.190;2022-12-07T15:59:20;9.40;65.00
3770;DHT22;1900;48.890;9.190;2022-12-07T16:01:46;9.40;64.90
3770;DHT22;1900;48.890;9.190;2022-12-07T16:04:12;9.40;64.80
3770;DHT22;1900;48.890;9.190;2022-12-07T16:06:38;9.40;64.80
3770;DHT22;1900;48.890;9.190;2022-12-07T16:09:04;9.30;64.70
3770;DHT22;1900;48.890;9.190;2022-12-07T16:11:30;9.30;64.70
3770;DHT22;1900;48.890;9.190;2022-12-07T16:13:56;9.30;64.60
3770;DHT22;1900;48.890;9.190;2022-12-07T16:16:22;9.30;64.30
3770;DHT22;1900;48.890;9.190;2022-12-07T16:18:49;9.20;64.00
3770;DHT22;1900;48.890;9.190;2022-12-07T16:21:16;9.20;64.10
3770;DHT22;1900;48.890;9.190;2022-12-07T16:23:42;9.10;64.00
3770;DHT22;1900;48.890;9.190;2022-12-07T16:26:27;9.10;64.00
3770;DHT22;1900;48.890;9.190;2022-12-07T16:28:54;9.10;64.20
3770;DHT22;1900;48.890;9.190;2022-12-07T16:31:23;9.00;64.30
3770;DHT22;1900;48.890;9.190;2022-12-07T16:33:52;9.00;64.50
3770;DHT22;1900;48.890;9.190;2022-12-07T16:36:18;9.00;64.70
3770;DHT22;1900;48.890;9.190;2022-12-07T16:38:44;9.00;64.80
3770;DHT22;1900;48.890;9.190;2022-12-07T16:41:10;9.10;64.90
3770;DHT22;1900;48.890;9.190;2022-12-07T16:43:37;9.10;65.00
3770;DHT22;1900;48.890;9.190;2022-12-07T16:46:03;9.10;65.00
3770;DHT22;1900;48.890;9.190;2022-12-07T16:48:29;9.10;65.00
3770;DHT22;1900;48.890;9.190;2022-12-07T16:50:55;9.10;65.00
3770;DHT22;1900;48.890;9.190;2022-12-07T16:53:23;9.10;65.00
3770;DHT22;1900;48.890;9.190;2022-12-07T16:55:49;9.10;65.00
3770;DHT22;1900;48.890;9.190;2022-12-07T16:58:17;9.10;64.90
3770;DHT22;1900;48.890;9.190;2022-12-07T17:00:44;9.10;64.90
3770;DHT22;1900;48.890;9.190;2022-12-07T17:03:10;9.10;64.90
3770;DHT22;1900;48.890;9.190;2022-12-07T17:05:43;9.10;64.80
3770;DHT22;1900;48.890;9.190;2022-12-07T17:08:10;9.10;64.70
3770;DHT22;1900;48.890;9.190;2022-12-07T17:10:38;9.10;64.80
3770;DHT22;1900;48.890;9.190;2022-12-07T17:13:05;9.10;64.80
3770;DHT22;1900;48.890;9.190;2022-12-07T17:16:05;9.10;64.80
3770;DHT22;1900;48.890;9.190;2022-12-07T17:18:33;9.10;64.80
3770;DHT22;1900;48.890;9.190;2022-12-07T17:21:04;9.10;64.90
3770;DHT22;1900;48.890;9.190;2022-12-07T17:23:32;9.10;64.90
3770;DHT22;1900;48.890;9.190;2022-12-07T17:26:05;9.10;65.00
3770;DHT22;1900;48.890;9.190;2022-12-07T17:28:31;9.10;65.00
3770;DHT22;1900;48.890;9.190;2022-12-07T17:30:57;9.10;65.00
3770;DHT22;1900;48.890;9.190;2022-12-07T17:33:23;9.10;64.90
3770;DHT22;1900;48.890;9.190;2022-12-07T17:35:48;9.10;64.90
3770;DHT22;1900;48.890;9.190;2022-12-07T17:38:14;9.20;64.80
3770;DHT22;1900;48.890;9.190;2022-12-07T17:40:40;9.10;64.60
3770;DHT22;1900;48.890;9.190;2022-12-07T17:43:05;9.10;64.60
3770;DHT22;1900;48.890;9.190;2022-12-07T17:45:33;9.10;64.60
3770;DHT22;1900;48.890;9.190;2022-12-07T17:48:01;9.10;64.60
3770;DHT22;1900;48.890;9.190;2022-12-07T17:50:26;9.10;64.50
3770;DHT22;1900;48.890;9.190;2022-12-07T17:53:15;9.10;64.40
3770;DHT22;1900;48.890;9.190;2022-12-07T17:55:41;9.10;64.50
3770;DHT22;1900;48.890;9.190;2022-12-07T17:58:07;9.10;64.50
3770;DHT22;1900;48.890;9.190;2022-12-07T18:00:33;9.10;64.40
3770;DHT22;1900;48.890;9.190;2022-12-07T18:03:06;9.00;64.40
3770;DHT22;1900;48.890;9.190;2022-12-07T18:05:35;9.00;64.50
3770;DHT22;1900;48.890;9.190;2022-12-07T18:08:01;9.00;64.60
3770;DHT22;1900;48.890;9.190;2022-12-07T18:10:27;9.00;64.60
3770;DHT22;1900;48.890;9.190;2022-12-07T18:12:52;9.00;64.60
3770;DHT22;1900;48.890;9.190;2022-12-07T18:15:38;9.00;64.60
3770;DHT22;1900;48.890;9.190;2022-12-07T18:18:05;9.00;64.70
3770;DHT22;1900;48.890;9.190;2022-12-07T18:20:30;9.00;64.70
3770;DHT22;1900;48.890;9.190;2022-12-07T18:22:56;9.10;64.70
3770;DHT22;1900;48.890;9.190;2022-12-07T18:25:22;9.00;64.60
3770;DHT22;1900;48.890;9.190;2022-12-07T18:27:47;9.10;64.70
3770;DHT22;1900;48.890;9.190;2022-12-07T18:30:13;9.00;64.50
3770;DHT22;1900;48.890;9.190;2022-12-07T18:32:39;9.10;64.50
3770;DHT22;1900;48.890;9.190;2022-12-07T18:35:05;9.00;64.30
3770;DHT22;1900;48.890;9.190;2022-12-07T18:37:39;9.00;64.30
3770;DHT22;1900;48.890;9.190;2022-12-07T18:40:08;9.00;64.40
3770;DHT22;1900;48.890;9.190;2022-12-07T18:42:34;9.00;64.50